sensor_id;sensor_type;location;lat;lon;timestamp;temperature;humidity
2729;DHT22;1372;47.956;7.830;2023-04-07T00:01:15;9.60;99.90
2729;DHT22;1372;47.956;7.830;2023-04-07T00:03:44;9.60;99.90
2729;DHT22;1372;47.956;7.830;2023-04-07T00:06:13;9.60;99.90
2729;DHT22;1372;47.956;7.830;2023-04-07T00:08:43;9.60;99.90
2729;DHT22;1372;47.956;7.830;2023-04-07T00:11:12;9.60;99.90
2729;DHT22;1372;47.956;7.830;2023-04-07T00:13:41;9.50;99.90
2729;DHT22;1372;47.956;7.830;2023-04-07T00:16:10;9.40;99.90
2729;DHT22;1372;47.956;7.830;2023-04-07T00:18:39;9.40;99.90
2729;DHT22;1372;47.956;7.830;2023-04-07T00:21:10;9.30;99.90
2729;DHT22;1372;47.956;7.830;2023-04-07T00:23:39;9.30;99.90
2729;DHT22;1372;47.956;7.830;2023-04-07T00:26:10;9.10;99.90
2729;DHT22;1372;47.956;7.830;2023-04-07T00:28:39;9.10;99.90
2729;DHT22;1372;47.956;7.830;2023-04-07T00:31:08;9.00;99.90
2729;DHT22;1372;47.956;7.830;2023-04-07T00:33:36;9.00;99.90
2729;DHT22;1372;47.956;7.830;2023-04-07T00:36:05;9.00;99.90
2729;DHT22;1372;47.956;7.830;2023-04-07T00:38:35;8.90;99.90
2729;DHT22;1372;47.956;7.830;2023-04-07T00:41:04;8.80;99.90
2729;DHT22;1372;47.956;7.830;2023-04-07T00:43:34;8.80;99.90
2729;DHT22;1372;47.956;7.830;2023-04-07T00:46:03;8.70;99.90
2729;DHT22;1372;47.956;7.830;2023-04-07T00:48:32;8.60;99.90
2729;DHT22;1372;47.956;7.830;2023-04-07T00:51:01;8.50;99.90
2729;DHT22;1372;47.956;7.830;2023-04-07T00:53:31;8.40;99.90
2729;DHT22;1372;47.956;7.830;2023-04-07T00:56:00;8.40;99.90
2729;DHT22;1372;47.956;7.830;2023-04-07T00:58:29;8.30;99.90
2729;DHT22;1372;47.956;7.830;2023-04-07T01:01:06;8.20;99.90
2729;DHT22;1372;47.956;7.830;2023-04-07T01:03:42;8.20;99.90
2729;DHT22;1372;47.956;7.830;2023-04-07T01:06:15;8.30;99.90
2729;DHT22;1372;47.956;7.830;2023-04-07T01:08:56;8.30;99.90
2729;DHT22;1372;47.956;7.830;2023-04-07T01:11:34;8.30;99.90
2729;DHT22;1372;47.956;7.830;2023-04-07T01:14:05;8.30;99.90
2729;DHT22;1372;47.956;7.830;2023-04-07T01:16:45;8.20;99.90
2729;DHT22;1372;47.956;7.830;2023-04-07T01:19:23;8.30;99.90
2729;DHT22;1372;47.956;7.830;2023-04-07T01:22:00;8.30;99.90
2729;DHT22;1372;47.956;7.830;2023-04-07T01:24:50;8.40;99.90
2729;DHT22;1372;47.956;7.830;2023-04-07T01:27:37;8.40;99.90
2729;DHT22;1372;47.956;7.830;2023-04-07T01:30:15;8.40;99.90
2729;DHT22;1372;47.956;7.830;2023-04-07T01:32:49;8.40;99.90
2729;DHT22;1372;47.956;7.830;2023-04-07T01:35:20;8.50;99.90
2729;DHT22;1372;47.956;7.830;2023-04-07T01:37:50;8.40;99.90
2729;DHT22;1372;47.956;7.830;2023-04-07T01:40:20;8.40;99.90
2729;DHT22;1372;47.956;7.830;2023-04-07T01:42:50;8.40;99.90
2729;DHT22;1372;47.956;7.830;2023-04-07T01:45:23;8.50;99.90
2729;DHT22;1372;47.956;7.830;2023-04-07T01:47:55;8.50;99.90
2729;DHT22;1372;47.956;7.830;2023-04-07T01:50:24;8.50;99.90
2729;DHT22;1372;47.956;7.830;2023-04-07T01:52:53;8.60;99.90
2729;DHT22;1372;47.956;7.830;2023-04-07T01:55:24;8.50;99.90
2729;DHT22;1372;47.956;7.830;2023-04-07T01:57:53;8.40;99.90
2729;DHT22;1372;47.956;7.830;2023-04-07T02:00:23;8.40;99.90
2729;DHT22;1372;47.956;7.830;2023-04-07T02:03:00;8.30;99.90
2729;DHT22;1372;47.956;7.830;2023-04-07T02:05:34;8.30;99.90
2729;DHT22;1372;47.956;7.830;2023-04-07T02:08:04;8.40;99.90
2729;DHT22;1372;47.956;7.830;2023-04-07T02:10:36;8.50;99.90
2729;DHT22;1372;47.956;7.830;2023-04-07T02:13:07;8.40;99.90
2729;DHT22;1372;47.956;7.830;2023-04-07T02:15:40;8.40;99.90
2729;DHT22;1372;47.956;7.830;2023-04-07T02:18:11;8.30;99.90
2729;DHT22;1372;47.956;7.830;2023-04-07T02:20:43;8.30;99.90
2729;DHT22;1372;47.956;7.830;2023-04-07T02:23:12;8.30;99.90
2729;DHT22;1372;47.956;7.830;2023-04-07T02:25:43;8.30;99.90
2729;DHT22;1372;47.956;7.830;2023-04-07T02:28:11;8.40;99.90
2729;DHT22;1372;47.956;7.830;2023-04-07T02:30:44;8.40;99.90
2729;DHT22;1372;47.956;7.830;2023-04-07T02:33:13;8.30;99.90
2729;DHT22;1372;47.956;7.830;2023-04-07T02:35:42;8.20;99.90
2729;DHT22;1372;47.956;7.830;2023-04-07T02:38:13;8.00;99.90
2729;DHT22;1372;47.956;7.830;2023-04-07T02:40:41;8.10;99.90
2729;DHT22;1372;47.956;7.830;2023-04-07T02:43:10;8.00;99.90
2729;DHT22;1372;47.956;7.830;2023-04-07T02:45:40;7.90;99.90
2729;DHT22;1372;47.956;7.830;2023-04-07T02:48:10;7.90;99.90
2729;DHT22;1372;47.956;7.830;2023-04-07T02:50:39;7.90;99.90
2729;DHT22;1372;47.956;7.830;2023-04-07T02:53:08;7.80;99.90
2729;DHT22;1372;47.956;7.830;2023-04-07T02:55:39;7.70;99.90
2729;DHT22;1372;47.956;7.830;2023-04-07T02:58:09;7.70;99.90
2729;DHT22;1372;47.956;7.830;2023-04-07T03:00:38;7.50;99.90
2729;DHT22;1372;47.956;7.830;2023-04-07T03:03:06;7.40;99.90
2729;DHT22;1372;47.956;7.830;2023-04-07T03:05:37;7.40;99.90
2729;DHT22;1372;47.956;7.830;2023-04-07T03:08:08;7.40;99.90
2729;DHT22;1372;47.956;7.830;2023-04-07T03:10:39;7.30;99.90
2729;DHT22;1372;47.956;7.830;2023-04-07T03:13:08;7.10;99.90
2729;DHT22;1372;47.956;7.830;2023-04-07T03:15:41;7.20;99.90
2729;DHT22;1372;47.956;7.830;2023-04-07T03:18:10;7.10;99.90
2729;DHT22;1372;47.956;7.830;2023-04-07T03:20:40;6.90;99.90
2729;DHT22;1372;47.956;7.830;2023-04-07T03:23:10;6.90;99.90
2729;DHT22;1372;47.956;7.830;2023-04-07T03:25:40;7.10;99.90
2729;DHT22;1372;47.956;7.830;2023-04-07T03:28:08;7.20;99.90
2729;DHT22;1372;47.956;7.830;2023-04-07T03:30:37;7.20;99.90
2729;DHT22;1372;47.956;7.830;2023-04-07T03:33:06;7.20;99.90
2729;DHT22;1372;47.956;7.830;2023-04-07T03:35:35;7.20;99.90
2729;DHT22;1372;47.956;7.830;2023-04-07T03:38:05;7.20;99.90
2729;DHT22;1372;47.956;7.830;2023-04-07T03:40:34;7.20;99.90
2729;DHT22;1372;47.956;7.830;2023-04-07T03:43:03;7.10;99.90
2729;DHT22;1372;47.956;7.830;2023-04-07T03:45:38;7.10;99.90
2729;DHT22;1372;47.956;7.830;2023-04-07T03:48:07;7.00;99.90
2729;DHT22;1372;47.956;7.830;2023-04-07T03:50:38;7.00;99.90
2729;DHT22;1372;47.956;7.830;2023-04-07T03:53:11;7.00;99.90
2729;DHT22;1372;47.956;7.830;2023-04-07T03:55:42;7.00;99.90
2729;DHT22;1372;47.956;7.830;2023-04-07T03:58:11;7.00;99.90
2729;DHT22;1372;47.956;7.830;2023-04-07T04:00:40;7.00;99.90
2729;DHT22;1372;47.956;7.830;2023-04-07T04:03:09;6.90;99.90
2729;DHT22;1372;47.956;7.830;2023-04-07T04:05:38;7.00;99.90
2729;DHT22;1372;47.956;7.830;2023-04-07T04:08:07;6.90;99.90
2729;DHT22;1372;47.956;7.830;2023-04-07T04:10:38;6.90;99.90
2729;DHT22;1372;47.956;7.830;2023-04-07T04:13:07;6.90;99.90
2729;DHT22;1372;47.956;7.830;2023-04-07T04:15:36;6.90;99.90
2729;DHT22;1372;47.956;7.830;2023-04-07T04:18:05;7.00;99.90
2729;DHT22;1372;47.956;7.830;2023-04-07T04:20:34;6.90;99.90
2729;DHT22;1372;47.956;7.830;2023-04-07T04:23:04;7.00;99.90
2729;DHT22;1372;47.956;7.830;2023-04-07T04:25:33;7.10;99.90
2729;DHT22;1372;47.956;7.830;2023-04-07T04:28:03;7.10;99.90
2729;DHT22;1372;47.956;7.830;2023-04-07T04:30:35;7.10;99.90
2729;DHT22;1372;47.956;7.830;2023-04-07T04:33:04;7.00;99.90
2729;DHT22;1372;47.956;7.830;2023-04-07T04:35:33;7.00;99.90
2729;DHT22;1372;47.956;7.830;2023-04-07T04:38:02;7.00;99.90
2729;DHT22;1372;47.956;7.830;2023-04-07T04:40:31;6.90;99.90
2729;DHT22;1372;47.956;7.830;2023-04-07T04:43:04;6.90;99.90
2729;DHT22;1372;47.956;7.830;2023-04-07T04:45:34;7.00;99.90
2729;DHT22;1372;47.956;7.830;2023-04-07T04:48:03;7.00;99.90
2729;DHT22;1372;47.956;7.830;2023-04-07T04:50:32;7.00;99.90
2729;DHT22;1372;47.956;7.830;2023-04-07T04:53:04;7.00;99.90
2729;DHT22;1372;47.956;7.830;2023-04-07T04:55:33;7.00;99.90
2729;DHT22;1372;47.956;7.830;2023-04-07T04:58:03;7.00;99.90
2729;DHT22;1372;47.956;7.830;2023-04-07T05:00:33;7.10;99.90
2729;DHT22;1372;47.956;7.830;2023-04-07T05:03:02;7.10;99.90
2729;DHT22;1372;47.956;7.830;2023-04-07T05:05:31;7.10;99.90
2729;DHT22;1372;47.956;7.830;2023-04-07T05:08:02;7.00;99.90
2729;DHT22;1372;47.956;7.830;2023-04-07T05:10:31;7.10;99.90
2729;DHT22;1372;47.956;7.830;2023-04-07T05:13:00;7.10;99.90
2729;DHT22;1372;47.956;7.830;2023-04-07T05:15:30;7.20;99.90
2729;DHT22;1372;47.956;7.830;2023-04-07T05:17:59;7.30;99.90
2729;DHT22;1372;47.956;7.830;2023-04-07T05:20:28;7.20;99.90
2729;DHT22;1372;47.956;7.830;2023-04-07T05:22:57;7.30;99.90
2729;DHT22;1372;47.956;7.830;2023-04-07T05:25:28;7.30;99.90
2729;DHT22;1372;47.956;7.830;2023-04-07T05:27:57;7.30;99.90
2729;DHT22;1372;47.956;7.830;2023-04-07T05:30:26;7.30;99.90
2729;DHT22;1372;47.956;7.830;2023-04-07T05:32:57;7.30;99.90
2729;DHT22;1372;47.956;7.830;2023-04-07T05:35:26;7.30;99.90
2729;DHT22;1372;47.956;7.830;2023-04-07T05:37:55;7.30;99.90
2729;DHT22;1372;47.956;7.830;2023-04-07T05:40:24;7.30;99.90
2729;DHT22;1372;47.956;7.830;2023-04-07T05:42:52;7.30;99.90
2729;DHT22;1372;47.956;7.830;2023-04-07T05:45:22;7.40;99.90
2729;DHT22;1372;47.956;7.830;2023-04-07T05:47:51;7.40;99.90
2729;DHT22;1372;47.956;7.830;2023-04-07T05:50:21;7.40;99.90
2729;DHT22;1372;47.956;7.830;2023-04-07T05:52:50;7.50;99.90
2729;DHT22;1372;47.956;7.830;2023-04-07T05:55:19;7.50;99.90
2729;DHT22;1372;47.956;7.830;2023-04-07T05:57:49;7.50;99.90
2729;DHT22;1372;47.956;7.830;2023-04-07T06:00:18;7.60;99.90
2729;DHT22;1372;47.956;7.830;2023-04-07T06:02:48;7.70;99.90
2729;DHT22;1372;47.956;7.830;2023-04-07T06:05:17;7.80;99.90
2729;DHT22;1372;47.956;7.830;2023-04-07T06:07:47;7.80;99.90
2729;DHT22;1372;47.956;7.830;2023-04-07T06:10:17;7.80;99.90
2729;DHT22;1372;47.956;7.830;2023-04-07T06:12:45;7.80;99.90
2729;DHT22;1372;47.956;7.830;2023-04-07T06:15:14;7.80;99.90
2729;DHT22;1372;47.956;7.830;2023-04-07T06:17:46;7.90;99.90
2729;DHT22;1372;47.956;7.830;2023-04-07T06:20:15;8.00;99.90
2729;DHT22;1372;47.956;7.830;2023-04-07T06:22:44;8.20;99.90
2729;DHT22;1372;47.956;7.830;2023-04-07T06:25:14;8.30;99.90
2729;DHT22;1372;47.956;7.830;2023-04-07T06:27:44;8.40;99.90
2729;DHT22;1372;47.956;7.830;2023-04-07T06:30:13;8.40;99.90
2729;DHT22;1372;47.956;7.830;2023-04-07T06:32:43;8.50;99.90
2729;DHT22;1372;47.956;7.830;2023-04-07T06:35:13;8.50;99.90
2729;DHT22;1372;47.956;7.830;2023-04-07T06:37:42;8.60;99.90
2729;DHT22;1372;47.956;7.830;2023-04-07T06:40:11;8.60;99.90
2729;DHT22;1372;47.956;7.830;2023-04-07T06:42:41;8.70;99.90
2729;DHT22;1372;47.956;7.830;2023-04-07T06:45:25;8.70;99.90
2729;DHT22;1372;47.956;7.830;2023-04-07T06:48:14;8.70;99.90
2729;DHT22;1372;47.956;7.830;2023-04-07T06:50:45;8.80;99.90
2729;DHT22;1372;47.956;7.830;2023-04-07T06:53:15;8.80;99.90
2729;DHT22;1372;47.956;7.830;2023-04-07T06:55:44;8.90;99.90
2729;DHT22;1372;47.956;7.830;2023-04-07T06:58:14;8.90;99.90
2729;DHT22;1372;47.956;7.830;2023-04-07T07:00:46;9.00;99.90
2729;DHT22;1372;47.956;7.830;2023-04-07T07:03:22;9.10;99.90
2729;DHT22;1372;47.956;7.830;2023-04-07T07:05:54;9.10;99.90
2729;DHT22;1372;47.956;7.830;2023-04-07T07:08:27;9.10;99.90
2729;DHT22;1372;47.956;7.830;2023-04-07T07:11:06;9.20;99.90
2729;DHT22;1372;47.956;7.830;2023-04-07T07:13:43;9.30;99.90
2729;DHT22;1372;47.956;7.830;2023-04-07T07:16:13;9.50;99.90
2729;DHT22;1372;47.956;7.830;2023-04-07T07:18:45;9.50;99.90
2729;DHT22;1372;47.956;7.830;2023-04-07T07:21:18;9.40;99.90
2729;DHT22;1372;47.956;7.830;2023-04-07T07:23:48;9.40;99.90
2729;DHT22;1372;47.956;7.830;2023-04-07T07:26:18;9.40;99.90
2729;DHT22;1372;47.956;7.830;2023-04-07T07:28:49;9.50;99.90
2729;DHT22;1372;47.956;7.830;2023-04-07T07:31:19;9.60;99.90
2729;DHT22;1372;47.956;7.830;2023-04-07T07:33:48;9.60;99.90
2729;DHT22;1372;47.956;7.830;2023-04-07T07:36:21;9.60;99.90
2729;DHT22;1372;47.956;7.830;2023-04-07T07:38:52;9.60;99.90
2729;DHT22;1372;47.956;7.830;2023-04-07T07:41:24;9.70;99.90
2729;DHT22;1372;47.956;7.830;2023-04-07T07:44:06;9.70;99.90
2729;DHT22;1372;47.956;7.830;2023-04-07T07:46:37;9.70;99.90
2729;DHT22;1372;47.956;7.830;2023-04-07T07:49:06;9.70;99.90
2729;DHT22;1372;47.956;7.830;2023-04-07T07:51:34;9.70;99.90
2729;DHT22;1372;47.956;7.830;2023-04-07T07:54:04;9.70;99.90
2729;DHT22;1372;47.956;7.830;2023-04-07T07:56:33;9.60;99.90
2729;DHT22;1372;47.956;7.830;2023-04-07T07:59:05;9.50;99.90
2729;DHT22;1372;47.956;7.830;2023-04-07T08:01:34;9.60;99.90
2729;DHT22;1372;47.956;7.830;2023-04-07T08:04:13;9.70;99.90
2729;DHT22;1372;47.956;7.830;2023-04-07T08:06:42;9.80;99.90
2729;DHT22;1372;47.956;7.830;2023-04-07T08:09:11;9.70;99.90
2729;DHT22;1372;47.956;7.830;2023-04-07T08:11:45;9.70;99.90
2729;DHT22;1372;47.956;7.830;2023-04-07T08:14:17;9.70;99.90
2729;DHT22;1372;47.956;7.830;2023-04-07T08:16:49;9.60;99.90
2729;DHT22;1372;47.956;7.830;2023-04-07T08:19:18;9.50;99.90
2729;DHT22;1372;47.956;7.830;2023-04-07T08:21:47;9.40;99.90
2729;DHT22;1372;47.956;7.830;2023-04-07T08:24:17;9.40;99.90
2729;DHT22;1372;47.956;7.830;2023-04-07T08:26:46;9.40;99.90
2729;DHT22;1372;47.956;7.830;2023-04-07T08:29:19;9.50;99.90
2729;DHT22;1372;47.956;7.830;2023-04-07T08:31:48;9.50;99.90
2729;DHT22;1372;47.956;7.830;2023-04-07T08:34:19;9.50;99.90
2729;DHT22;1372;47.956;7.830;2023-04-07T08:36:48;9.50;99.90
2729;DHT22;1372;47.956;7.830;2023-04-07T08:39:20;9.50;99.90
2729;DHT22;1372;47.956;7.830;2023-04-07T08:41:52;9.30;99.90
2729;DHT22;1372;47.956;7.830;2023-04-07T08:44:27;9.20;99.90
2729;DHT22;1372;47.956;7.830;2023-04-07T08:46:58;9.10;99.90
2729;DHT22;1372;47.956;7.830;2023-04-07T08:49:31;9.00;99.90
2729;DHT22;1372;47.956;7.830;2023-04-07T08:52:03;9.10;99.90
2729;DHT22;1372;47.956;7.830;2023-04-07T08:54:35;9.10;99.90
2729;DHT22;1372;47.956;7.830;2023-04-07T08:57:05;9.10;99.90
2729;DHT22;1372;47.956;7.830;2023-04-07T08:59:37;9.00;99.90
2729;DHT22;1372;47.956;7.830;2023-04-07T09:02:09;9.00;99.90
2729;DHT22;1372;47.956;7.830;2023-04-07T09:04:38;9.00;99.90
2729;DHT22;1372;47.956;7.830;2023-04-07T09:07:09;9.00;99.90
2729;DHT22;1372;47.956;7.830;2023-04-07T09:09:37;9.00;99.90
2729;DHT22;1372;47.956;7.830;2023-04-07T09:12:07;9.00;99.90
2729;DHT22;1372;47.956;7.830;2023-04-07T09:14:39;9.00;99.90
2729;DHT22;1372;47.956;7.830;2023-04-07T09:17:13;9.10;99.90
2729;DHT22;1372;47.956;7.830;2023-04-07T09:19:46;9.20;99.90
2729;DHT22;1372;47.956;7.830;2023-04-07T09:22:18;9.00;99.90
2729;DHT22;1372;47.956;7.830;2023-04-07T09:25:14;9.00;99.90
2729;DHT22;1372;47.956;7.830;2023-04-07T09:27:55;8.90;99.90
2729;DHT22;1372;47.956;7.830;2023-04-07T09:30:27;8.90;99.90
2729;DHT22;1372;47.956;7.830;2023-04-07T09:32:58;8.90;99.90
2729;DHT22;1372;47.956;7.830;2023-04-07T09:35:28;9.00;99.90
2729;DHT22;1372;47.956;7.830;2023-04-07T09:38:06;8.90;99.90
2729;DHT22;1372;47.956;7.830;2023-04-07T09:40:39;8.90;99.90
2729;DHT22;1372;47.956;7.830;2023-04-07T09:43:14;8.90;99.90
2729;DHT22;1372;47.956;7.830;2023-04-07T09:45:46;8.60;99.90
2729;DHT22;1372;47.956;7.830;2023-04-07T09:48:18;8.50;99.90
2729;DHT22;1372;47.956;7.830;2023-04-07T09:51:04;8.50;99.90
2729;DHT22;1372;47.956;7.830;2023-04-07T09:53:44;8.50;99.90
2729;DHT22;1372;47.956;7.830;2023-04-07T09:56:19;8.60;99.90
2729;DHT22;1372;47.956;7.830;2023-04-07T09:58:50;8.70;99.90
2729;DHT22;1372;47.956;7.830;2023-04-07T10:01:21;8.70;99.90
2729;DHT22;1372;47.956;7.830;2023-04-07T10:03:50;8.60;99.90
2729;DHT22;1372;47.956;7.830;2023-04-07T10:06:19;8.60;99.90
2729;DHT22;1372;47.956;7.830;2023-04-07T10:08:49;8.40;99.90
2729;DHT22;1372;47.956;7.830;2023-04-07T10:11:18;8.40;99.90
2729;DHT22;1372;47.956;7.830;2023-04-07T10:13:50;8.50;99.90
2729;DHT22;1372;47.956;7.830;2023-04-07T10:16:26;8.40;99.90
2729;DHT22;1372;47.956;7.830;2023-04-07T10:18:55;8.40;99.90
2729;DHT22;1372;47.956;7.830;2023-04-07T10:21:24;8.50;99.90
2729;DHT22;1372;47.956;7.830;2023-04-07T10:23:58;8.60;99.90
2729;DHT22;1372;47.956;7.830;2023-04-07T10:26:37;8.70;99.90
2729;DHT22;1372;47.956;7.830;2023-04-07T10:29:10;8.70;99.90
2729;DHT22;1372;47.956;7.830;2023-04-07T10:31:45;8.70;99.90
2729;DHT22;1372;47.956;7.830;2023-04-07T10:34:14;8.50;99.90
2729;DHT22;1372;47.956;7.830;2023-04-07T10:37:09;8.50;99.90
2729;DHT22;1372;47.956;7.830;2023-04-07T10:39:40;8.40;99.90
2729;DHT22;1372;47.956;7.830;2023-04-07T10:42:44;8.20;99.90
2729;DHT22;1372;47.956;7.830;2023-04-07T10:45:14;8.20;99.90
2729;DHT22;1372;47.956;7.830;2023-04-07T10:48:09;8.30;99.90
2729;DHT22;1372;47.956;7.830;2023-04-07T10:50:39;8.30;99.90
2729;DHT22;1372;47.956;7.830;2023-04-07T10:53:09;8.20;99.90
2729;DHT22;1372;47.956;7.830;2023-04-07T10:55:40;8.10;99.90
2729;DHT22;1372;47.956;7.830;2023-04-07T11:03:59;8.20;99.90
2729;DHT22;1372;47.956;7.830;2023-04-07T11:06:28;8.30;99.90
2729;DHT22;1372;47.956;7.830;2023-04-07T11:08:58;8.30;99.90
2729;DHT22;1372;47.956;7.830;2023-04-07T11:11:40;8.30;99.90
2729;DHT22;1372;47.956;7.830;2023-04-07T11:14:09;8.30;99.90
2729;DHT22;1372;47.956;7.830;2023-04-07T11:16:40;8.50;99.90
2729;DHT22;1372;47.956;7.830;2023-04-07T11:19:13;8.50;99.90
2729;DHT22;1372;47.956;7.830;2023-04-07T11:21:42;8.60;99.90
2729;DHT22;1372;47.956;7.830;2023-04-07T11:24:32;8.70;99.90
2729;DHT22;1372;47.956;7.830;2023-04-07T11:27:03;8.70;99.90
2729;DHT22;1372;47.956;7.830;2023-04-07T11:30:31;8.50;99.90
2729;DHT22;1372;47.956;7.830;2023-04-07T11:33:02;8.40;99.90
2729;DHT22;1372;47.956;7.830;2023-04-07T11:35:46;8.40;99.90
2729;DHT22;1372;47.956;7.830;2023-04-07T11:38:19;8.40;99.90
2729;DHT22;1372;47.956;7.830;2023-04-07T11:44:44;8.30;99.90
2729;DHT22;1372;47.956;7.830;2023-04-07T11:47:14;8.30;99.90
2729;DHT22;1372;47.956;7.830;2023-04-07T11:49:44;8.50;99.90
2729;DHT22;1372;47.956;7.830;2023-04-07T11:52:16;8.60;99.90
2729;DHT22;1372;47.956;7.830;2023-04-07T11:54:51;8.70;99.90
2729;DHT22;1372;47.956;7.830;2023-04-07T11:57:23;8.80;99.90
2729;DHT22;1372;47.956;7.830;2023-04-07T12:00:04;8.80;99.90
2729;DHT22;1372;47.956;7.830;2023-04-07T12:02:34;8.90;99.90
2729;DHT22;1372;47.956;7.830;2023-04-07T12:05:04;9.10;99.90
2729;DHT22;1372;47.956;7.830;2023-04-07T12:07:38;9.20;99.90
2729;DHT22;1372;47.956;7.830;2023-04-07T12:10:18;9.10;99.90
2729;DHT22;1372;47.956;7.830;2023-04-07T12:12:47;9.20;99.90
2729;DHT22;1372;47.956;7.830;2023-04-07T12:15:17;9.20;99.90
2729;DHT22;1372;47.956;7.830;2023-04-07T12:17:48;9.30;99.90
2729;DHT22;1372;47.956;7.830;2023-04-07T12:20:16;9.30;99.90
2729;DHT22;1372;47.956;7.830;2023-04-07T12:22:47;9.30;99.90
2729;DHT22;1372;47.956;7.830;2023-04-07T12:25:15;9.20;99.90
2729;DHT22;1372;47.956;7.830;2023-04-07T12:27:44;9.30;99.90
2729;DHT22;1372;47.956;7.830;2023-04-07T12:30:13;9.40;99.90
2729;DHT22;1372;47.956;7.830;2023-04-07T12:32:42;9.30;99.90
2729;DHT22;1372;47.956;7.830;2023-04-07T12:35:14;9.30;99.90
2729;DHT22;1372;47.956;7.830;2023-04-07T12:37:43;9.30;99.90
2729;DHT22;1372;47.956;7.830;2023-04-07T12:40:15;9.40;99.90
2729;DHT22;1372;47.956;7.830;2023-04-07T12:42:44;9.40;99.90
2729;DHT22;1372;47.956;7.830;2023-04-07T12:45:14;9.30;99.90
2729;DHT22;1372;47.956;7.830;2023-04-07T12:47:44;9.30;99.90
2729;DHT22;1372;47.956;7.830;2023-04-07T12:50:12;9.40;99.90
2729;DHT22;1372;47.956;7.830;2023-04-07T12:52:42;9.30;99.90
2729;DHT22;1372;47.956;7.830;2023-04-07T12:55:14;9.20;99.90
2729;DHT22;1372;47.956;7.830;2023-04-07T12:57:43;9.10;99.90
2729;DHT22;1372;47.956;7.830;2023-04-07T13:00:13;9.20;99.90
2729;DHT22;1372;47.956;7.830;2023-04-07T13:02:42;9.40;99.90
2729;DHT22;1372;47.956;7.830;2023-04-07T13:05:12;9.40;99.90
2729;DHT22;1372;47.956;7.830;2023-04-07T13:07:41;9.40;99.90
2729;DHT22;1372;47.956;7.830;2023-04-07T13:10:10;9.30;99.90
2729;DHT22;1372;47.956;7.830;2023-04-07T13:12:41;9.20;99.90
2729;DHT22;1372;47.956;7.830;2023-04-07T13:15:10;9.20;99.90
2729;DHT22;1372;47.956;7.830;2023-04-07T13:17:39;9.20;99.90
2729;DHT22;1372;47.956;7.830;2023-04-07T13:20:11;9.20;99.90
2729;DHT22;1372;47.956;7.830;2023-04-07T13:22:45;9.30;99.90
2729;DHT22;1372;47.956;7.830;2023-04-07T13:25:24;9.20;99.90
2729;DHT22;1372;47.956;7.830;2023-04-07T13:27:54;9.20;99.90
2729;DHT22;1372;47.956;7.830;2023-04-07T13:30:25;9.10;99.90
2729;DHT22;1372;47.956;7.830;2023-04-07T13:32:54;9.00;99.90
2729;DHT22;1372;47.956;7.830;2023-04-07T13:35:26;8.90;99.90
2729;DHT22;1372;47.956;7.830;2023-04-07T13:37:56;9.00;99.90
2729;DHT22;1372;47.956;7.830;2023-04-07T13:40:25;9.10;99.90
2729;DHT22;1372;47.956;7.830;2023-04-07T13:42:55;9.20;99.90
2729;DHT22;1372;47.956;7.830;2023-04-07T13:45:25;9.30;99.90
2729;DHT22;1372;47.956;7.830;2023-04-07T13:47:57;9.20;99.90
2729;DHT22;1372;47.956;7.830;2023-04-07T13:50:26;9.30;99.90
2729;DHT22;1372;47.956;7.830;2023-04-07T13:52:56;9.30;99.90
2729;DHT22;1372;47.956;7.830;2023-04-07T13:55:27;9.10;99.90
2729;DHT22;1372;47.956;7.830;2023-04-07T13:58:27;9.10;99.90
2729;DHT22;1372;47.956;7.830;2023-04-07T14:05:24;9.20;99.90
2729;DHT22;1372;47.956;7.830;2023-04-07T14:07:53;9.30;99.90
2729;DHT22;1372;47.956;7.830;2023-04-07T14:10:22;9.20;99.90
2729;DHT22;1372;47.956;7.830;2023-04-07T14:12:51;9.20;99.90
2729;DHT22;1372;47.956;7.830;2023-04-07T14:15:32;9.20;99.90
2729;DHT22;1372;47.956;7.830;2023-04-07T14:18:01;9.10;99.90
2729;DHT22;1372;47.956;7.830;2023-04-07T14:20:31;9.10;99.90
2729;DHT22;1372;47.956;7.830;2023-04-07T14:23:00;9.10;99.90
2729;DHT22;1372;47.956;7.830;2023-04-07T14:25:30;9.20;99.90
2729;DHT22;1372;47.956;7.830;2023-04-07T14:27:59;9.30;99.90
2729;DHT22;1372;47.956;7.830;2023-04-07T14:30:29;9.40;99.90
2729;DHT22;1372;47.956;7.830;2023-04-07T14:33:00;9.40;99.90
2729;DHT22;1372;47.956;7.830;2023-04-07T14:35:31;9.30;99.90
2729;DHT22;1372;47.956;7.830;2023-04-07T14:38:00;9.30;99.90
2729;DHT22;1372;47.956;7.830;2023-04-07T14:40:30;9.40;99.90
2729;DHT22;1372;47.956;7.830;2023-04-07T14:43:01;9.50;99.90
2729;DHT22;1372;47.956;7.830;2023-04-07T14:45:43;9.60;99.90
2729;DHT22;1372;47.956;7.830;2023-04-07T14:48:25;9.60;99.90
2729;DHT22;1372;47.956;7.830;2023-04-07T14:51:30;9.70;99.90
2729;DHT22;1372;47.956;7.830;2023-04-07T14:53:59;9.80;99.90
2729;DHT22;1372;47.956;7.830;2023-04-07T14:56:28;9.60;99.90
2729;DHT22;1372;47.956;7.830;2023-04-07T14:58:58;9.50;99.90
2729;DHT22;1372;47.956;7.830;2023-04-07T15:01:32;9.50;99.90
2729;DHT22;1372;47.956;7.830;2023-04-07T15:04:05;9.40;99.90
2729;DHT22;1372;47.956;7.830;2023-04-07T15:06:35;9.40;99.90
2729;DHT22;1372;47.956;7.830;2023-04-07T15:09:03;9.50;99.90
2729;DHT22;1372;47.956;7.830;2023-04-07T15:11:32;9.60;99.90
2729;DHT22;1372;47.956;7.830;2023-04-07T15:14:01;9.60;99.90
2729;DHT22;1372;47.956;7.830;2023-04-07T15:16:33;9.80;99.90
2729;DHT22;1372;47.956;7.830;2023-04-07T15:19:02;10.00;99.90
2729;DHT22;1372;47.956;7.830;2023-04-07T15:21:31;10.00;99.90
2729;DHT22;1372;47.956;7.830;2023-04-07T15:24:00;10.10;99.90
2729;DHT22;1372;47.956;7.830;2023-04-07T15:26:29;10.20;99.90
2729;DHT22;1372;47.956;7.830;2023-04-07T15:28:58;10.20;99.90
2729;DHT22;1372;47.956;7.830;2023-04-07T15:31:27;10.10;99.90
2729;DHT22;1372;47.956;7.830;2023-04-07T15:33:57;10.10;99.90
2729;DHT22;1372;47.956;7.830;2023-04-07T15:36:27;10.10;99.90
2729;DHT22;1372;47.956;7.830;2023-04-07T15:38:56;10.10;99.90
2729;DHT22;1372;47.956;7.830;2023-04-07T15:41:25;10.30;99.90
2729;DHT22;1372;47.956;7.830;2023-04-07T15:43:54;10.20;99.90
2729;DHT22;1372;47.956;7.830;2023-04-07T15:46:24;10.10;99.90
2729;DHT22;1372;47.956;7.830;2023-04-07T15:48:53;10.20;99.90
2729;DHT22;1372;47.956;7.830;2023-04-07T15:51:23;10.20;99.90
2729;DHT22;1372;47.956;7.830;2023-04-07T15:53:53;10.10;99.90
2729;DHT22;1372;47.956;7.830;2023-04-07T15:56:22;10.10;99.90
2729;DHT22;1372;47.956;7.830;2023-04-07T15:58:52;9.90;99.90
2729;DHT22;1372;47.956;7.830;2023-04-07T16:01:21;9.80;99.90
2729;DHT22;1372;47.956;7.830;2023-04-07T16:03:50;9.80;99.90
2729;DHT22;1372;47.956;7.830;2023-04-07T16:06:20;9.70;99.90
2729;DHT22;1372;47.956;7.830;2023-04-07T16:08:51;9.70;99.90
2729;DHT22;1372;47.956;7.830;2023-04-07T16:11:21;9.70;99.90
2729;DHT22;1372;47.956;7.830;2023-04-07T16:13:50;9.80;99.90
2729;DHT22;1372;47.956;7.830;2023-04-07T16:16:19;9.90;99.90
2729;DHT22;1372;47.956;7.830;2023-04-07T16:18:50;10.00;99.90
2729;DHT22;1372;47.956;7.830;2023-04-07T16:21:19;10.10;99.90
2729;DHT22;1372;47.956;7.830;2023-04-07T16:23:50;10.10;99.90
2729;DHT22;1372;47.956;7.830;2023-04-07T16:26:19;10.50;99.90
2729;DHT22;1372;47.956;7.830;2023-04-07T16:28:48;11.10;99.90
2729;DHT22;1372;47.956;7.830;2023-04-07T16:31:17;11.70;99.90
2729;DHT22;1372;47.956;7.830;2023-04-07T16:33:46;12.10;99.90
2729;DHT22;1372;47.956;7.830;2023-04-07T16:36:17;12.00;99.90
2729;DHT22;1372;47.956;7.830;2023-04-07T16:38:46;12.10;99.90
2729;DHT22;1372;47.956;7.830;2023-04-07T16:41:17;12.40;99.90
2729;DHT22;1372;47.956;7.830;2023-04-07T16:43:48;12.30;99.90
2729;DHT22;1372;47.956;7.830;2023-04-07T16:46:17;12.30;99.90
2729;DHT22;1372;47.956;7.830;2023-04-07T16:48:48;12.30;99.90
2729;DHT22;1372;47.956;7.830;2023-04-07T16:51:18;12.10;99.90
2729;DHT22;1372;47.956;7.830;2023-04-07T16:53:47;11.70;99.90
2729;DHT22;1372;47.956;7.830;2023-04-07T16:56:20;11.50;99.90
2729;DHT22;1372;47.956;7.830;2023-04-07T16:58:50;11.60;99.90